Sky Valley, California
Current Conditions -  °F | °C
As of 6:53 AM on Wednesday 22 Oct 2014 (Local Time) from KPSP Reporting Station
Clear Clear  
Wind Chill: 70°   Ceiling: Unl
Heat Index: 70°   Visibility: 10mi
Dew Point: 36°   Wind: 6mph
Humidity: 29%   Direction: 320°NW
Pressure: 29.88"   Gusts: NA
Location:  33.8584°N, 116.312°W
Report Text: KPSP 221353Z AUTO 32005KT 10SM CLR 21/02 A2988 RMK AO2 SLP114 T02110022 TSNO $
Loading
Personal Weather Stations






























Interactive Weather Map
Tropical Storm Tracking
New forecast layout! Learn more

10-Day Weather Forecast

Advertisements
Track Severe Weather on mobile